sensor_id;sensor_type;location;lat;lon;timestamp;pressure;altitude;pressure_sealevel;temperature;humidity
72892;BME280;61032;50.782;6.818;2023-04-19T00:00:06;101427.19;;;12.62;59.62
72892;BME280;61032;50.782;6.818;2023-04-19T00:01:07;101433.84;;;12.61;59.46
72892;BME280;61032;50.782;6.818;2023-04-19T00:02:08;101431.09;;;12.61;59.72
72892;BME280;61032;50.782;6.818;2023-04-19T00:03:09;101430.59;;;12.59;59.72
72892;BME280;61032;50.782;6.818;2023-04-19T00:04:10;101435.97;;;12.64;59.77
72892;BME280;61032;50.782;6.818;2023-04-19T00:05:11;101428.81;;;12.63;59.86
72892;BME280;61032;50.782;6.818;2023-04-19T00:06:12;101433.22;;;12.64;59.77
72892;BME280;61032;50.782;6.818;2023-04-19T00:07:14;101433.38;;;12.67;59.70
72892;BME280;61032;50.782;6.818;2023-04-19T00:08:16;101427.50;;;12.69;59.73
72892;BME280;61032;50.782;6.818;2023-04-19T00:09:16;101438.72;;;12.72;59.38
72892;BME280;61032;50.782;6.818;2023-04-19T00:10:17;101431.41;;;12.68;59.49
72892;BME280;61032;50.782;6.818;2023-04-19T00:11:17;101431.41;;;12.68;59.46
72892;BME280;61032;50.782;6.818;2023-04-19T00:12:18;101429.81;;;12.67;59.45
72892;BME280;61032;50.782;6.818;2023-04-19T00:13:19;101431.41;;;12.68;59.64
72892;BME280;61032;50.782;6.818;2023-04-19T00:14:20;101436.13;;;12.67;59.58
72892;BME280;61032;50.782;6.818;2023-04-19T00:15:21;101432.41;;;12.63;59.73
72892;BME280;61032;50.782;6.818;2023-04-19T00:16:21;101429.94;;;12.62;59.73
72892;BME280;61032;50.782;6.818;2023-04-19T00:17:22;101429.47;;;12.60;59.96
72892;BME280;61032;50.782;6.818;2023-04-19T00:18:22;101434.78;;;12.56;60.11
72892;BME280;61032;50.782;6.818;2023-04-19T00:19:30;101438.19;;;12.53;60.32
72892;BME280;61032;50.782;6.818;2023-04-19T00:20:38;101432.03;;;12.56;60.19
72892;BME280;61032;50.782;6.818;2023-04-19T00:21:38;101432.34;;;12.55;60.30
72892;BME280;61032;50.782;6.818;2023-04-19T00:22:39;101429.59;;;12.55;60.35
72892;BME280;61032;50.782;6.818;2023-04-19T00:23:39;101432.84;;;12.57;60.17
72892;BME280;61032;50.782;6.818;2023-04-19T00:24:39;101434.78;;;12.56;60.24
72892;BME280;61032;50.782;6.818;2023-04-19T00:25:40;101426.69;;;12.60;60.17
72892;BME280;61032;50.782;6.818;2023-04-19T00:26:40;101432.84;;;12.57;60.20
72892;BME280;61032;50.782;6.818;2023-04-19T00:27:40;101425.22;;;12.54;60.23
72892;BME280;61032;50.782;6.818;2023-04-19T00:28:41;101426.34;;;12.53;60.52
72892;BME280;61032;50.782;6.818;2023-04-19T00:29:41;101426.66;;;12.51;60.63
72892;BME280;61032;50.782;6.818;2023-04-19T00:30:42;101426.34;;;12.53;60.68
72892;BME280;61032;50.782;6.818;2023-04-19T00:31:42;101431.38;;;12.51;60.57
72892;BME280;61032;50.782;6.818;2023-04-19T00:32:42;101426.53;;;12.56;60.25
72892;BME280;61032;50.782;6.818;2023-04-19T00:33:43;101424.09;;;12.55;60.29
72892;BME280;61032;50.782;6.818;2023-04-19T00:34:43;101426.34;;;12.53;60.70
72892;BME280;61032;50.782;6.818;2023-04-19T00:35:44;101426.22;;;12.58;60.38
72892;BME280;61032;50.782;6.818;2023-04-19T00:36:44;101429.47;;;12.60;60.45
72892;BME280;61032;50.782;6.818;2023-04-19T00:37:44;101426.84;;;12.55;60.54
72892;BME280;61032;50.782;6.818;2023-04-19T00:38:45;101426.22;;;12.58;60.42
72892;BME280;61032;50.782;6.818;2023-04-19T00:39:45;101422.81;;;12.61;60.36
72892;BME280;61032;50.782;6.818;2023-04-19T00:40:46;101423.31;;;12.63;60.31
72892;BME280;61032;50.782;6.818;2023-04-19T00:41:47;101423.63;;;12.61;60.29
72892;BME280;61032;50.782;6.818;2023-04-19T00:42:47;101427.50;;;12.60;60.51
72892;BME280;61032;50.782;6.818;2023-04-19T00:43:48;101423.44;;;12.58;60.55
72892;BME280;61032;50.782;6.818;2023-04-19T00:44:48;101426.22;;;12.58;60.58
72892;BME280;61032;50.782;6.818;2023-04-19T00:45:48;101422.81;;;12.61;60.72
72892;BME280;61032;50.782;6.818;2023-04-19T00:46:49;101421.69;;;12.62;61.00
72892;BME280;61032;50.782;6.818;2023-04-19T00:47:51;101421.69;;;12.62;60.69
72892;BME280;61032;50.782;6.818;2023-04-19T00:48:52;101422.00;;;12.60;60.95
72892;BME280;61032;50.782;6.818;2023-04-19T00:49:52;101416.94;;;12.54;61.02
72892;BME280;61032;50.782;6.818;2023-04-19T00:50:53;101423.59;;;12.53;60.78
72892;BME280;61032;50.782;6.818;2023-04-19T00:51:54;101426.84;;;12.55;61.04
72892;BME280;61032;50.782;6.818;2023-04-19T00:52:55;101416.94;;;12.54;61.13
72892;BME280;61032;50.782;6.818;2023-04-19T00:53:56;101426.38;;;12.61;60.97
72892;BME280;61032;50.782;6.818;2023-04-19T00:54:57;101423.44;;;12.58;60.79
72892;BME280;61032;50.782;6.818;2023-04-19T00:56:01;101417.06;;;12.49;61.02
72892;BME280;61032;50.782;6.818;2023-04-19T00:57:04;101412.88;;;12.51;61.33
72892;BME280;61032;50.782;6.818;2023-04-19T00:58:06;101407.66;;;12.50;61.33
72892;BME280;61032;50.782;6.818;2023-04-19T00:59:06;101417.91;;;12.49;61.21
72892;BME280;61032;50.782;6.818;2023-04-19T01:00:07;101415.13;;;12.41;61.38
72892;BME280;61032;50.782;6.818;2023-04-19T01:01:09;101406.84;;;12.41;61.65
72892;BME280;61032;50.782;6.818;2023-04-19T01:02:09;101408.63;;;12.36;61.71
72892;BME280;61032;50.782;6.818;2023-04-19T01:03:10;101414.63;;;12.38;61.92
72892;BME280;61032;50.782;6.818;2023-04-19T01:04:11;101407.31;;;12.34;61.91
72892;BME280;61032;50.782;6.818;2023-04-19T01:05:12;101412.81;;;12.34;61.97
72892;BME280;61032;50.782;6.818;2023-04-19T01:06:13;101406.50;;;12.33;61.73
72892;BME280;61032;50.782;6.818;2023-04-19T01:07:14;101408.44;;;12.33;61.88
72892;BME280;61032;50.782;6.818;2023-04-19T01:08:14;101407.13;;;12.30;61.78
72892;BME280;61032;50.782;6.818;2023-04-19T01:09:15;101403.88;;;12.28;62.12
72892;BME280;61032;50.782;6.818;2023-04-19T01:10:16;101402.59;;;12.26;62.25
72892;BME280;61032;50.782;6.818;2023-04-19T01:11:17;101404.53;;;12.25;62.21
72892;BME280;61032;50.782;6.818;2023-04-19T01:12:17;101393.66;;;12.20;62.42
72892;BME280;61032;50.782;6.818;2023-04-19T01:13:17;101395.41;;;12.16;62.73
72892;BME280;61032;50.782;6.818;2023-04-19T01:14:18;101394.28;;;12.17;62.58
72892;BME280;61032;50.782;6.818;2023-04-19T01:15:19;101396.53;;;12.15;62.50
72892;BME280;61032;50.782;6.818;2023-04-19T01:16:19;101394.09;;;12.14;62.75
72892;BME280;61032;50.782;6.818;2023-04-19T01:17:19;101394.75;;;12.11;62.71
72892;BME280;61032;50.782;6.818;2023-04-19T01:18:21;101391.81;;;12.07;62.87
72892;BME280;61032;50.782;6.818;2023-04-19T01:19:23;101395.22;;;12.04;62.79
72892;BME280;61032;50.782;6.818;2023-04-19T01:20:24;101393.72;;;11.98;63.30
72892;BME280;61032;50.782;6.818;2023-04-19T01:21:24;101393.53;;;11.94;63.38
72892;BME280;61032;50.782;6.818;2023-04-19T01:22:25;101392.72;;;11.94;63.57
72892;BME280;61032;50.782;6.818;2023-04-19T01:23:25;101393.34;;;11.91;63.61
72892;BME280;61032;50.782;6.818;2023-04-19T01:24:26;101394.63;;;11.85;63.72
72892;BME280;61032;50.782;6.818;2023-04-19T01:25:26;101397.34;;;11.76;64.56
72892;BME280;61032;50.782;6.818;2023-04-19T01:26:27;101386.31;;;11.76;64.56
72892;BME280;61032;50.782;6.818;2023-04-19T01:27:27;101394.06;;;11.74;64.18
72892;BME280;61032;50.782;6.818;2023-04-19T01:28:27;101387.88;;;11.68;64.35
72892;BME280;61032;50.782;6.818;2023-04-19T01:29:28;101395.63;;;11.66;64.52
72892;BME280;61032;50.782;6.818;2023-04-19T01:30:28;101395.13;;;11.64;64.85
72892;BME280;61032;50.782;6.818;2023-04-19T01:31:28;101394.31;;;11.64;64.87
72892;BME280;61032;50.782;6.818;2023-04-19T01:32:29;101394.31;;;11.64;64.77
72892;BME280;61032;50.782;6.818;2023-04-19T01:33:29;101392.72;;;11.63;64.57
72892;BME280;61032;50.782;6.818;2023-04-19T01:34:29;101392.06;;;11.66;64.47
72892;BME280;61032;50.782;6.818;2023-04-19T01:35:30;101396.59;;;11.62;64.52
72892;BME280;61032;50.782;6.818;2023-04-19T01:36:30;101390.91;;;11.58;64.93
72892;BME280;61032;50.782;6.818;2023-04-19T01:37:34;101394.28;;;11.55;65.08
72892;BME280;61032;50.782;6.818;2023-04-19T01:38:34;101396.34;;;11.50;65.37
72892;BME280;61032;50.782;6.818;2023-04-19T01:39:35;101390.47;;;11.43;65.99
72892;BME280;61032;50.782;6.818;2023-04-19T01:40:35;101386.09;;;11.42;65.84
72892;BME280;61032;50.782;6.818;2023-04-19T01:41:39;101390.94;;;11.45;65.41
72892;BME280;61032;50.782;6.818;2023-04-19T01:42:39;101394.16;;;11.38;65.63
72892;BME280;61032;50.782;6.818;2023-04-19T01:43:40;101389.78;;;11.37;66.16
72892;BME280;61032;50.782;6.818;2023-04-19T01:44:40;101387.84;;;11.38;66.28
72892;BME280;61032;50.782;6.818;2023-04-19T01:45:40;101386.72;;;11.39;66.15
72892;BME280;61032;50.782;6.818;2023-04-19T01:46:41;101399.69;;;11.38;65.73
72892;BME280;61032;50.782;6.818;2023-04-19T01:47:41;101383.28;;;11.33;66.39
72892;BME280;61032;50.782;6.818;2023-04-19T01:48:42;101385.53;;;11.31;66.06
72892;BME280;61032;50.782;6.818;2023-04-19T01:49:42;101388.53;;;11.21;66.52
72892;BME280;61032;50.782;6.818;2023-04-19T01:50:43;101380.91;;;11.18;66.76
72892;BME280;61032;50.782;6.818;2023-04-19T01:51:44;101386.41;;;11.18;66.70
72892;BME280;61032;50.782;6.818;2023-04-19T01:52:44;101380.41;;;11.16;66.46
72892;BME280;61032;50.782;6.818;2023-04-19T01:53:45;101381.53;;;11.15;66.62
72892;BME280;61032;50.782;6.818;2023-04-19T01:54:45;101380.81;;;11.09;66.72
72892;BME280;61032;50.782;6.818;2023-04-19T01:55:46;101385.63;;;11.03;67.28
72892;BME280;61032;50.782;6.818;2023-04-19T01:56:46;101372.84;;;10.99;67.57
72892;BME280;61032;50.782;6.818;2023-04-19T01:57:46;101387.50;;;10.94;67.87
72892;BME280;61032;50.782;6.818;2023-04-19T01:58:47;101386.00;;;10.88;67.78
72892;BME280;61032;50.782;6.818;2023-04-19T01:59:48;101385.50;;;10.86;67.68
72892;BME280;61032;50.782;6.818;2023-04-19T02:00:49;101381.63;;;10.87;68.18
72892;BME280;61032;50.782;6.818;2023-04-19T02:01:49;101380.69;;;10.92;67.81
72892;BME280;61032;50.782;6.818;2023-04-19T02:02:49;101376.50;;;10.94;67.50
72892;BME280;61032;50.782;6.818;2023-04-19T02:03:50;101378.94;;;10.96;67.36
72892;BME280;61032;50.782;6.818;2023-04-19T02:04:50;101376.72;;;10.98;67.56
72892;BME280;61032;50.782;6.818;2023-04-19T02:05:51;101371.50;;;10.96;67.17
72892;BME280;61032;50.782;6.818;2023-04-19T02:06:51;101375.69;;;10.94;67.78
72892;BME280;61032;50.782;6.818;2023-04-19T02:07:51;101375.50;;;10.90;67.68
72892;BME280;61032;50.782;6.818;2023-04-19T02:08:52;101377.13;;;10.91;67.53
72892;BME280;61032;50.782;6.818;2023-04-19T02:09:52;101383.75;;;10.90;67.51
72892;BME280;61032;50.782;6.818;2023-04-19T02:10:53;101374.47;;;10.86;68.15
72892;BME280;61032;50.782;6.818;2023-04-19T02:11:53;101373.00;;;10.80;67.81
72892;BME280;61032;50.782;6.818;2023-04-19T02:12:53;101373.00;;;10.80;68.00
72892;BME280;61032;50.782;6.818;2023-04-19T02:13:54;101371.69;;;10.78;67.84
72892;BME280;61032;50.782;6.818;2023-04-19T02:14:54;101369.84;;;10.73;68.23
72892;BME280;61032;50.782;6.818;2023-04-19T02:15:58;101374.34;;;10.69;68.60
72892;BME280;61032;50.782;6.818;2023-04-19T02:17:01;101380.97;;;10.68;68.87
72892;BME280;61032;50.782;6.818;2023-04-19T02:18:01;101379.03;;;10.68;68.77
72892;BME280;61032;50.782;6.818;2023-04-19T02:19:05;101372.69;;;10.68;68.82
72892;BME280;61032;50.782;6.818;2023-04-19T02:20:06;101370.69;;;10.60;69.15
72892;BME280;61032;50.782;6.818;2023-04-19T02:21:10;101371.50;;;10.60;69.19
72892;BME280;61032;50.782;6.818;2023-04-19T02:22:10;101376.69;;;10.62;69.05
72892;BME280;61032;50.782;6.818;2023-04-19T02:23:11;101375.56;;;10.63;68.69
72892;BME280;61032;50.782;6.818;2023-04-19T02:24:11;101373.13;;;10.61;69.02
72892;BME280;61032;50.782;6.818;2023-04-19T02:25:12;101373.06;;;10.53;69.41
72892;BME280;61032;50.782;6.818;2023-04-19T02:26:12;101362.56;;;10.55;69.72
72892;BME280;61032;50.782;6.818;2023-04-19T02:27:13;101365.81;;;10.57;69.18
72892;BME280;61032;50.782;6.818;2023-04-19T02:28:13;101367.94;;;10.60;69.64
72892;BME280;61032;50.782;6.818;2023-04-19T02:29:13;101366.94;;;10.56;69.55
72892;BME280;61032;50.782;6.818;2023-04-19T02:30:16;101363.38;;;10.55;69.83
72892;BME280;61032;50.782;6.818;2023-04-19T02:31:16;101367.84;;;10.51;69.87
72892;BME280;61032;50.782;6.818;2023-04-19T02:32:16;101372.53;;;10.51;69.85
72892;BME280;61032;50.782;6.818;2023-04-19T02:33:17;101365.09;;;10.51;69.98
72892;BME280;61032;50.782;6.818;2023-04-19T02:34:17;101365.00;;;10.56;69.63
72892;BME280;61032;50.782;6.818;2023-04-19T02:35:18;101371.00;;;10.58;69.49
72892;BME280;61032;50.782;6.818;2023-04-19T02:36:19;101369.06;;;10.59;69.48
72892;BME280;61032;50.782;6.818;2023-04-19T02:37:19;101372.94;;;10.58;69.25
72892;BME280;61032;50.782;6.818;2023-04-19T02:38:20;101373.75;;;10.58;69.76
72892;BME280;61032;50.782;6.818;2023-04-19T02:39:20;101367.00;;;10.64;69.69
72892;BME280;61032;50.782;6.818;2023-04-19T02:40:20;101365.69;;;10.62;69.70
72892;BME280;61032;50.782;6.818;2023-04-19T02:41:22;101367.44;;;10.58;69.73
72892;BME280;61032;50.782;6.818;2023-04-19T02:42:22;101368.88;;;10.55;69.47
72892;BME280;61032;50.782;6.818;2023-04-19T02:43:23;101365.81;;;10.57;69.46
72892;BME280;61032;50.782;6.818;2023-04-19T02:44:23;101369.69;;;10.56;69.67
72892;BME280;61032;50.782;6.818;2023-04-19T02:45:23;101365.63;;;10.53;69.80
72892;BME280;61032;50.782;6.818;2023-04-19T02:46:24;101366.44;;;10.54;69.90
72892;BME280;61032;50.782;6.818;2023-04-19T02:47:25;101370.81;;;10.55;70.13
72892;BME280;61032;50.782;6.818;2023-04-19T02:48:25;101364.19;;;10.56;69.87
72892;BME280;61032;50.782;6.818;2023-04-19T02:49:25;101363.38;;;10.55;70.13
72892;BME280;61032;50.782;6.818;2023-04-19T02:50:26;101363.16;;;10.52;69.92
72892;BME280;61032;50.782;6.818;2023-04-19T02:51:26;101364.81;;;10.53;70.32
72892;BME280;61032;50.782;6.818;2023-04-19T02:52:27;101359.50;;;10.56;70.46
72892;BME280;61032;50.782;6.818;2023-04-19T02:53:27;101362.44;;;10.60;70.44
72892;BME280;61032;50.782;6.818;2023-04-19T02:54:28;101365.19;;;10.60;70.07
72892;BME280;61032;50.782;6.818;2023-04-19T02:55:28;101370.69;;;10.60;70.03
72892;BME280;61032;50.782;6.818;2023-04-19T02:56:29;101364.38;;;10.59;70.57
72892;BME280;61032;50.782;6.818;2023-04-19T02:57:29;101363.25;;;10.60;70.36
72892;BME280;61032;50.782;6.818;2023-04-19T02:58:29;101351.13;;;10.61;70.05
72892;BME280;61032;50.782;6.818;2023-04-19T02:59:30;101359.06;;;10.63;70.52
72892;BME280;61032;50.782;6.818;2023-04-19T03:00:30;101359.06;;;10.63;70.52
72892;BME280;61032;50.782;6.818;2023-04-19T03:01:31;101357.44;;;10.62;70.14
72892;BME280;61032;50.782;6.818;2023-04-19T03:02:31;101359.19;;;10.58;70.57
72892;BME280;61032;50.782;6.818;2023-04-19T03:03:32;101349.69;;;10.64;70.26
72892;BME280;61032;50.782;6.818;2023-04-19T03:04:32;101354.50;;;10.58;70.30
72892;BME280;61032;50.782;6.818;2023-04-19T03:05:33;101360.50;;;10.60;70.75
72892;BME280;61032;50.782;6.818;2023-04-19T03:06:33;101355.00;;;10.60;71.08
72892;BME280;61032;50.782;6.818;2023-04-19T03:07:34;101355.00;;;10.60;70.53
72892;BME280;61032;50.782;6.818;2023-04-19T03:08:35;101355.00;;;10.60;71.08
72892;BME280;61032;50.782;6.818;2023-04-19T03:09:36;101353.41;;;10.59;70.98
72892;BME280;61032;50.782;6.818;2023-04-19T03:10:36;101352.75;;;10.62;70.82
72892;BME280;61032;50.782;6.818;2023-04-19T03:11:36;101358.44;;;10.66;70.56
72892;BME280;61032;50.782;6.818;2023-04-19T03:12:37;101363.34;;;10.69;70.70
72892;BME280;61032;50.782;6.818;2023-04-19T03:13:38;101348.47;;;10.70;70.73
72892;BME280;61032;50.782;6.818;2023-04-19T03:14:39;101350.41;;;10.70;70.55
72892;BME280;61032;50.782;6.818;2023-04-19T03:15:40;101356.00;;;10.64;70.66
72892;BME280;61032;50.782;6.818;2023-04-19T03:16:40;101348.06;;;10.63;70.64
72892;BME280;61032;50.782;6.818;2023-04-19T03:17:40;101354.69;;;10.62;70.77
72892;BME280;61032;50.782;6.818;2023-04-19T03:18:41;101351.94;;;10.62;71.26
72892;BME280;61032;50.782;6.818;2023-04-19T03:19:41;101346.63;;;10.65;71.05
72892;BME280;61032;50.782;6.818;2023-04-19T03:20:41;101352.34;;;10.69;71.06
72892;BME280;61032;50.782;6.818;2023-04-19T03:21:42;101345.41;;;10.72;70.87
72892;BME280;61032;50.782;6.818;2023-04-19T03:22:43;101343.28;;;10.68;70.74
72892;BME280;61032;50.782;6.818;2023-04-19T03:23:43;101346.63;;;10.65;70.61
72892;BME280;61032;50.782;6.818;2023-04-19T03:24:43;101345.81;;;10.65;70.71
72892;BME280;61032;50.782;6.818;2023-04-19T03:25:44;101340.31;;;10.65;71.15
72892;BME280;61032;50.782;6.818;2023-04-19T03:26:45;101346.44;;;10.62;71.27
72892;BME280;61032;50.782;6.818;2023-04-19T03:27:45;101348.38;;;10.61;71.49
72892;BME280;61032;50.782;6.818;2023-04-19T03:28:47;101349.50;;;10.60;71.10
72892;BME280;61032;50.782;6.818;2023-04-19T03:29:47;101345.44;;;10.58;71.44
72892;BME280;61032;50.782;6.818;2023-04-19T03:30:48;101343.81;;;10.57;71.69
72892;BME280;61032;50.782;6.818;2023-04-19T03:31:48;101341.38;;;10.55;71.23
72892;BME280;61032;50.782;6.818;2023-04-19T03:32:49;101343.50;;;10.58;71.49
72892;BME280;61032;50.782;6.818;2023-04-19T03:33:51;101338.84;;;10.59;71.28
72892;BME280;61032;50.782;6.818;2023-04-19T03:34:51;101341.69;;;10.54;71.72
72892;BME280;61032;50.782;6.818;2023-04-19T03:35:52;101340.56;;;10.55;71.62
72892;BME280;61032;50.782;6.818;2023-04-19T03:36:52;101337.50;;;10.56;71.56
72892;BME280;61032;50.782;6.818;2023-04-19T03:37:53;101344.13;;;10.55;71.32
72892;BME280;61032;50.782;6.818;2023-04-19T03:38:53;101338.94;;;10.54;71.58
72892;BME280;61032;50.782;6.818;2023-04-19T03:39:54;101331.81;;;10.53;71.43
72892;BME280;61032;50.782;6.818;2023-04-19T03:40:54;101336.50;;;10.52;71.61
72892;BME280;61032;50.782;6.818;2023-04-19T03:41:56;101337.00;;;10.54;71.48
72892;BME280;61032;50.782;6.818;2023-04-19T03:42:56;101331.81;;;10.53;71.97
72892;BME280;61032;50.782;6.818;2023-04-19T03:43:57;101334.56;;;10.53;71.37
72892;BME280;61032;50.782;6.818;2023-04-19T03:44:58;101334.25;;;10.54;72.21
72892;BME280;61032;50.782;6.818;2023-04-19T03:45:58;101329.56;;;10.55;71.47
72892;BME280;61032;50.782;6.818;2023-04-19T03:46:59;101330.78;;;10.49;72.01
72892;BME280;61032;50.782;6.818;2023-04-19T03:47:59;101328.34;;;10.47;71.99
72892;BME280;61032;50.782;6.818;2023-04-19T03:49:00;101333.25;;;10.50;71.92
72892;BME280;61032;50.782;6.818;2023-04-19T03:50:01;101321.44;;;10.50;72.30
72892;BME280;61032;50.782;6.818;2023-04-19T03:51:01;101329.38;;;10.51;72.34
72892;BME280;61032;50.782;6.818;2023-04-19T03:52:01;101325.00;;;10.50;72.00
72892;BME280;61032;50.782;6.818;2023-04-19T03:53:03;101334.06;;;10.51;72.28
72892;BME280;61032;50.782;6.818;2023-04-19T03:54:04;101324.69;;;10.52;71.79
72892;BME280;61032;50.782;6.818;2023-04-19T03:55:05;101327.44;;;10.52;72.03
72892;BME280;61032;50.782;6.818;2023-04-19T03:56:06;101326.38;;;10.61;71.97
72892;BME280;61032;50.782;6.818;2023-04-19T03:57:06;101332.38;;;10.63;72.35
72892;BME280;61032;50.782;6.818;2023-04-19T03:58:06;101326.38;;;10.61;71.81
72892;BME280;61032;50.782;6.818;2023-04-19T03:59:08;101323.75;;;10.56;71.99
72892;BME280;61032;50.782;6.818;2023-04-19T04:00:09;101324.06;;;10.55;72.37
72892;BME280;61032;50.782;6.818;2023-04-19T04:01:22;101321.19;;;10.60;72.76
72892;BME280;61032;50.782;6.818;2023-04-19T04:02:23;101334.44;;;10.58;72.43
72892;BME280;61032;50.782;6.818;2023-04-19T04:03:23;101329.25;;;10.56;73.01
72892;BME280;61032;50.782;6.818;2023-04-19T04:04:27;101323.00;;;10.64;72.53
72892;BME280;61032;50.782;6.818;2023-04-19T04:05:27;101323.19;;;10.68;72.35
72892;BME280;61032;50.782;6.818;2023-04-19T04:06:28;101325.84;;;10.73;72.60
72892;BME280;61032;50.782;6.818;2023-04-19T04:07:28;101328.09;;;10.71;72.61
72892;BME280;61032;50.782;6.818;2023-04-19T04:08:28;101327.59;;;10.69;72.70
72892;BME280;61032;50.782;6.818;2023-04-19T04:09:29;101332.97;;;10.74;72.29
72892;BME280;61032;50.782;6.818;2023-04-19T04:10:30;101324.22;;;10.72;72.61
72892;BME280;61032;50.782;6.818;2023-04-19T04:11:30;101324.31;;;10.67;72.41
72892;BME280;61032;50.782;6.818;2023-04-19T04:12:31;101328.91;;;10.72;72.73
72892;BME280;61032;50.782;6.818;2023-04-19T04:13:31;101331.66;;;10.72;72.07
72892;BME280;61032;50.782;6.818;2023-04-19T04:14:32;101329.09;;;10.75;72.13
72892;BME280;61032;50.782;6.818;2023-04-19T04:15:32;101328.09;;;10.71;72.23
72892;BME280;61032;50.782;6.818;2023-04-19T04:16:32;101330.63;;;10.67;72.58
72892;BME280;61032;50.782;6.818;2023-04-19T04:17:33;101327.06;;;10.67;72.67
72892;BME280;61032;50.782;6.818;2023-04-19T04:18:34;101326.25;;;10.66;72.77
72892;BME280;61032;50.782;6.818;2023-04-19T04:19:34;101333.69;;;10.66;72.43
72892;BME280;61032;50.782;6.818;2023-04-19T04:20:35;101332.38;;;10.63;72.81
72892;BME280;61032;50.782;6.818;2023-04-19T04:21:35;101326.56;;;10.65;72.18
72892;BME280;61032;50.782;6.818;2023-04-19T04:22:42;101326.88;;;10.63;72.89
72892;BME280;61032;50.782;6.818;2023-04-19T04:23:42;101336.25;;;10.62;72.90
72892;BME280;61032;50.782;6.818;2023-04-19T04:24:43;101333.69;;;10.66;72.52
72892;BME280;61032;50.782;6.818;2023-04-19T04:25:44;101337.25;;;10.66;72.50
72892;BME280;61032;50.782;6.818;2023-04-19T04:26:45;101332.38;;;10.63;72.58
72892;BME280;61032;50.782;6.818;2023-04-19T04:27:45;101329.44;;;10.60;72.77
72892;BME280;61032;50.782;6.818;2023-04-19T04:28:46;101333.50;;;10.62;72.48
72892;BME280;61032;50.782;6.818;2023-04-19T04:29:47;101330.59;;;10.59;72.99
72892;BME280;61032;50.782;6.818;2023-04-19T04:30:48;101335.44;;;10.62;72.91
72892;BME280;61032;50.782;6.818;2023-04-19T04:31:51;101333.81;;;10.61;72.96
72892;BME280;61032;50.782;6.818;2023-04-19T04:32:51;101335.94;;;10.64;73.29
72892;BME280;61032;50.782;6.818;2023-04-19T04:33:51;101333.34;;;10.59;73.08
72892;BME280;61032;50.782;6.818;2023-04-19T04:34:54;101334.94;;;10.60;73.12
72892;BME280;61032;50.782;6.818;2023-04-19T04:35:55;101331.88;;;10.61;73.47
72892;BME280;61032;50.782;6.818;2023-04-19T04:36:56;101336.25;;;10.62;73.00
72892;BME280;61032;50.782;6.818;2023-04-19T04:37:57;101340.94;;;10.62;73.26
72892;BME280;61032;50.782;6.818;2023-04-19T04:38:58;101335.75;;;10.60;73.20
72892;BME280;61032;50.782;6.818;2023-04-19T04:40:01;101344.00;;;10.60;73.20
72892;BME280;61032;50.782;6.818;2023-04-19T04:41:04;101341.63;;;10.67;72.84
72892;BME280;61032;50.782;6.818;2023-04-19T04:42:05;101334.41;;;10.72;72.47
72892;BME280;61032;50.782;6.818;2023-04-19T04:43:09;101334.22;;;10.68;72.47
72892;BME280;61032;50.782;6.818;2023-04-19T04:44:10;101331.97;;;10.70;72.91
72892;BME280;61032;50.782;6.818;2023-04-19T04:45:11;101329.00;;;10.80;72.43
72892;BME280;61032;50.782;6.818;2023-04-19T04:46:12;101337.66;;;10.74;72.92
72892;BME280;61032;50.782;6.818;2023-04-19T04:47:12;101335.31;;;10.67;73.23
72892;BME280;61032;50.782;6.818;2023-04-19T04:48:13;101331.47;;;10.68;73.14
72892;BME280;61032;50.782;6.818;2023-04-19T04:49:16;101341.44;;;10.64;73.37
72892;BME280;61032;50.782;6.818;2023-04-19T04:50:17;101337.69;;;10.60;73.45
72892;BME280;61032;50.782;6.818;2023-04-19T04:51:17;101337.56;;;10.65;73.68
72892;BME280;61032;50.782;6.818;2023-04-19T04:52:18;101334.81;;;10.65;73.77
72892;BME280;61032;50.782;6.818;2023-04-19T04:53:18;101336.44;;;10.66;73.47
72892;BME280;61032;50.782;6.818;2023-04-19T04:54:19;101337.47;;;10.70;73.15
72892;BME280;61032;50.782;6.818;2023-04-19T04:55:20;101346.63;;;10.65;73.48
72892;BME280;61032;50.782;6.818;2023-04-19T04:56:20;101342.56;;;10.63;74.02
72892;BME280;61032;50.782;6.818;2023-04-19T04:57:21;101340.31;;;10.65;73.80
72892;BME280;61032;50.782;6.818;2023-04-19T04:58:24;101336.44;;;10.66;73.96
72892;BME280;61032;50.782;6.818;2023-04-19T04:59:24;101343.38;;;10.63;73.61
72892;BME280;61032;50.782;6.818;2023-04-19T05:00:25;101343.88;;;10.65;73.74
72892;BME280;61032;50.782;6.818;2023-04-19T05:01:26;101338.69;;;10.64;74.01
72892;BME280;61032;50.782;6.818;2023-04-19T05:02:26;101341.13;;;10.65;73.82
72892;BME280;61032;50.782;6.818;2023-04-19T05:03:26;101339.31;;;10.61;73.77
72892;BME280;61032;50.782;6.818;2023-04-19T05:04:27;101345.00;;;10.64;74.67
72892;BME280;61032;50.782;6.818;2023-04-19T05:05:28;101346.94;;;10.64;74.08
72892;BME280;61032;50.782;6.818;2023-04-19T05:06:28;101347.13;;;10.67;74.28
72892;BME280;61032;50.782;6.818;2023-04-19T05:07:29;101344.38;;;10.67;74.13
72892;BME280;61032;50.782;6.818;2023-04-19T05:08:29;101350.09;;;10.71;74.00
72892;BME280;61032;50.782;6.818;2023-04-19T05:09:30;101347.22;;;10.76;74.29
72892;BME280;61032;50.782;6.818;2023-04-19T05:10:31;101340.91;;;10.76;74.36
72892;BME280;61032;50.782;6.818;2023-04-19T05:11:32;101342.53;;;10.77;74.30
72892;BME280;61032;50.782;6.818;2023-04-19T05:12:33;101345.28;;;10.77;74.31
72892;BME280;61032;50.782;6.818;2023-04-19T05:13:33;101343.53;;;10.81;74.23
72892;BME280;61032;50.782;6.818;2023-04-19T05:14:33;101340.00;;;10.80;73.80
72892;BME280;61032;50.782;6.818;2023-04-19T05:15:34;101344.53;;;10.85;73.78
72892;BME280;61032;50.782;6.818;2023-04-19T05:16:34;101348.00;;;10.90;73.68
72892;BME280;61032;50.782;6.818;2023-04-19T05:17:35;101344.31;;;10.95;72.93